createdAt,value
2022-11-24T00:03:11.679Z,0.73
2022-11-24T00:08:13.711Z,0.65
2022-11-24T00:13:14.464Z,0.51
2022-11-24T00:18:16.579Z,0.46
2022-11-24T00:23:17.395Z,0.43
2022-11-24T00:28:18.170Z,0.41
2022-11-24T00:33:20.365Z,0.39
2022-11-24T00:38:21.187Z,0.36
2022-11-24T00:43:22.037Z,0.35
2022-11-24T00:48:24.305Z,0.33
2022-11-24T00:53:25.342Z,0.33
2022-11-24T00:58:26.733Z,0.29
2022-11-24T01:03:28.970Z,0.23
2022-11-24T01:08:29.715Z,0.24
2022-11-24T01:13:30.487Z,0.19
2022-11-24T01:18:32.631Z,0.15
2022-11-24T01:23:33.797Z,0.10
2022-11-24T01:28:34.815Z,0.08
2022-11-24T01:33:37.959Z,0.00
2022-11-24T01:38:38.792Z,-0.03
2022-11-24T01:43:39.687Z,-0.10
2022-11-24T01:48:47.068Z,-0.11
2022-11-24T01:53:53.080Z,-0.10
2022-11-24T01:58:57.413Z,-0.13
2022-11-24T02:04:01.690Z,-0.17
2022-11-24T02:09:07.967Z,-0.22
2022-11-24T02:14:12.448Z,-0.25
2022-11-24T02:19:21.451Z,-0.26
2022-11-24T02:24:26.368Z,-0.34
2022-11-24T02:29:28.583Z,-0.26
2022-11-24T02:34:29.424Z,-0.26
2022-11-24T02:39:30.452Z,-0.27
2022-11-24T02:44:37.115Z,-0.30
2022-11-24T02:49:38.334Z,-0.36
2022-11-24T02:54:39.097Z,-0.38
2022-11-24T02:59:41.307Z,-0.37
2022-11-24T03:04:42.074Z,-0.36
2022-11-24T03:09:43.587Z,-0.34
2022-11-24T03:14:45.746Z,-0.33
2022-11-24T03:19:46.515Z,-0.29
2022-11-24T03:24:47.295Z,-0.29
2022-11-24T03:29:49.416Z,-0.31
2022-11-24T03:34:50.273Z,-0.32
2022-11-24T03:39:51.185Z,-0.31
2022-11-24T03:44:53.337Z,-0.37
2022-11-24T03:49:55.141Z,-0.36
2022-11-24T03:54:55.956Z,-0.38
2022-11-24T03:59:58.918Z,-0.43
2022-11-24T04:05:00.162Z,-0.48
2022-11-24T04:10:00.948Z,-0.43
2022-11-24T04:15:03.088Z,-0.43
2022-11-24T04:20:04.329Z,-0.43
2022-11-24T04:25:06.765Z,-0.39
2022-11-24T04:30:10.164Z,-0.41
2022-11-24T04:35:11.498Z,-0.37
2022-11-24T04:40:14.062Z,-0.36
2022-11-24T04:45:16.254Z,-0.38
2022-11-24T04:50:17.726Z,-0.35
2022-11-24T04:55:18.730Z,-0.29
2022-11-24T05:00:21.616Z,-0.20
2022-11-24T05:05:22.377Z,-0.13
2022-11-24T05:10:38.630Z,-0.11
2022-11-24T05:15:42.181Z,-0.03
2022-11-24T05:20:44.646Z,-0.05
2022-11-24T05:25:47.737Z,0.07
2022-11-24T05:30:50.237Z,0.11
2022-11-24T05:35:51.375Z,0.24
2022-11-24T05:40:52.163Z,0.24
2022-11-24T05:45:54.675Z,0.30
2022-11-24T05:50:56.639Z,0.24
2022-11-24T05:55:57.421Z,0.24
2022-11-24T06:00:59.549Z,0.20
2022-11-24T06:06:00.382Z,0.26
2022-11-24T06:11:17.155Z,0.36
2022-11-24T06:16:19.467Z,0.36
2022-11-24T06:21:20.277Z,0.46
2022-11-24T06:26:21.376Z,0.52
2022-11-24T06:31:23.843Z,0.61
2022-11-24T06:36:25.555Z,0.67
2022-11-24T06:41:26.319Z,0.76
2022-11-24T06:46:28.437Z,0.97
2022-11-24T06:51:29.228Z,1.04
2022-11-24T06:56:29.991Z,1.10
2022-11-24T07:01:32.360Z,1.07
2022-11-24T07:06:33.141Z,1.18
2022-11-24T07:11:35.387Z,1.20
2022-11-24T07:16:37.963Z,1.22
2022-11-24T07:21:38.754Z,1.29
2022-11-24T07:26:40.136Z,1.32
2022-11-24T07:31:42.548Z,1.42
2022-11-24T07:36:45.113Z,1.45
2022-11-24T07:41:45.933Z,1.51
2022-11-24T07:46:50.048Z,1.49
2022-11-24T07:51:50.929Z,1.62
2022-11-24T07:56:51.726Z,1.74
2022-11-24T08:01:53.951Z,1.85
2022-11-24T08:06:54.887Z,1.98
2022-11-24T08:11:55.689Z,2.14
2022-11-24T08:16:58.953Z,2.24
2022-11-24T08:21:59.819Z,2.33
2022-11-24T08:27:00.905Z,2.61
2022-11-24T08:32:03.109Z,2.71
2022-11-24T08:37:05.136Z,2.73
2022-11-24T08:42:06.706Z,2.80
2022-11-24T08:47:08.850Z,3.01
2022-11-24T08:52:09.712Z,3.14
2022-11-24T08:57:10.476Z,3.17
2022-11-24T09:02:14.483Z,3.23
2022-11-24T09:07:15.321Z,3.22
2022-11-24T09:12:16.292Z,3.22
2022-11-24T09:17:18.449Z,3.31
2022-11-24T09:22:19.996Z,3.39
2022-11-24T09:27:20.789Z,3.34
2022-11-24T09:32:22.994Z,3.18
2022-11-24T09:37:28.132Z,3.37
2022-11-24T09:42:41.104Z,3.52
2022-11-24T09:47:54.298Z,3.60
2022-11-24T09:53:01.986Z,3.79
2022-11-24T09:58:35.076Z,3.86
2022-11-24T10:03:43.469Z,3.89
2022-11-24T10:09:04.424Z,4.00
2022-11-24T10:14:40.859Z,4.02
2022-11-24T10:19:50.972Z,4.06
2022-11-24T10:25:09.095Z,4.10
2022-11-24T10:30:16.254Z,4.20
2022-11-24T10:35:22.483Z,4.44
2022-11-24T10:40:56.086Z,4.37
2022-11-24T10:45:53.857Z,4.50
2022-11-24T10:51:09.352Z,4.44
2022-11-24T10:56:10.181Z,4.28
2022-11-24T11:01:22.363Z,4.36
2022-11-24T11:06:27.337Z,4.57
2022-11-24T11:11:30.330Z,4.58
2022-11-24T11:16:37.829Z,4.70
2022-11-24T11:21:40.637Z,4.75
2022-11-24T11:26:42.592Z,4.93
2022-11-24T11:34:02.866Z,5.48
2022-11-24T11:37:13.315Z,5.66
2022-11-24T11:42:45.146Z,5.56
2022-11-24T11:47:45.755Z,5.62
2022-11-24T11:53:04.151Z,5.58
2022-11-24T11:58:25.035Z,5.62
2022-11-24T12:03:44.563Z,5.47
2022-11-24T12:14:32.093Z,5.60
2022-11-24T12:19:50.636Z,5.48
2022-11-24T12:25:00.220Z,5.64
2022-11-24T12:30:10.738Z,5.63
2022-11-24T12:35:20.593Z,5.77
2022-11-24T12:40:33.656Z,5.80
2022-11-24T12:45:41.314Z,5.82
2022-11-24T12:50:45.021Z,5.72
2022-11-24T12:55:48.078Z,5.79
2022-11-24T13:01:01.154Z,5.81
2022-11-24T13:06:08.574Z,5.93
2022-11-24T13:11:41.897Z,6.04
2022-11-24T13:17:21.776Z,6.14
2022-11-24T13:22:19.147Z,6.22
2022-11-24T13:27:39.910Z,6.31
2022-11-24T13:32:59.907Z,6.32
2022-11-24T13:38:00.724Z,6.30
2022-11-24T13:43:22.612Z,6.27
2022-11-24T13:49:01.014Z,6.32
2022-11-24T13:54:02.905Z,6.36
2022-11-24T13:59:18.742Z,6.24
2022-11-24T14:04:30.946Z,6.06
2022-11-24T14:09:38.002Z,5.82
2022-11-24T14:14:40.567Z,5.76
2022-11-24T14:19:41.782Z,5.85
2022-11-24T14:24:45.259Z,5.85
2022-11-24T14:35:25.365Z,5.74
2022-11-24T14:40:42.843Z,5.78
2022-11-24T14:45:53.081Z,5.77
2022-11-24T14:51:05.238Z,5.77
2022-11-24T14:56:23.168Z,5.73
2022-11-24T15:01:32.659Z,5.65
2022-11-24T15:06:35.305Z,5.65
2022-11-24T15:11:36.418Z,5.64
2022-11-24T15:16:41.076Z,6.18
2022-11-24T15:21:43.261Z,7.20
2022-11-24T15:26:44.976Z,7.46
2022-11-24T15:31:51.037Z,6.73
2022-11-24T15:36:55.029Z,6.19
2022-11-24T15:41:56.067Z,5.92
2022-11-24T15:46:57.084Z,5.83
2022-11-24T15:51:59.313Z,5.79
2022-11-24T15:57:00.666Z,5.71
2022-11-24T16:02:01.598Z,5.62
2022-11-24T16:07:06.265Z,5.58
2022-11-24T16:12:08.227Z,5.46
2022-11-24T16:17:09.089Z,5.37
2022-11-24T16:22:11.823Z,5.29
2022-11-24T16:27:13.831Z,5.22
2022-11-24T16:32:14.654Z,5.15
2022-11-24T16:37:18.315Z,5.02
2022-11-24T16:42:19.082Z,4.95
2022-11-24T16:47:20.209Z,4.90
2022-11-24T16:52:22.391Z,4.87
2022-11-24T16:57:23.206Z,4.82
2022-11-24T17:02:24.109Z,4.88
2022-11-24T17:07:26.577Z,4.94
2022-11-24T17:12:27.404Z,5.13
2022-11-24T17:17:29.202Z,5.20
2022-11-24T17:22:31.375Z,5.18
2022-11-24T17:27:32.403Z,5.13
2022-11-24T17:32:33.623Z,5.13
2022-11-24T17:37:37.038Z,5.15
2022-11-24T17:42:37.957Z,5.08
2022-11-24T17:47:38.815Z,5.14
2022-11-24T17:52:40.964Z,5.14
2022-11-24T17:57:41.773Z,5.68
2022-11-24T18:02:42.633Z,5.56
2022-11-24T18:07:44.964Z,5.34
2022-11-24T18:12:45.827Z,5.23
2022-11-24T18:17:46.643Z,5.09
2022-11-24T18:23:05.841Z,5.01
2022-11-24T18:28:07.025Z,5.01
2022-11-24T18:33:07.917Z,5.06
2022-11-24T18:38:10.483Z,5.07
2022-11-24T18:43:11.268Z,5.04
2022-11-24T18:48:12.057Z,5.05
2022-11-24T18:53:14.211Z,5.14
2022-11-24T18:58:15.071Z,5.11
2022-11-24T19:03:15.881Z,5.06
2022-11-24T19:08:18.019Z,5.06
2022-11-24T19:13:18.841Z,5.02
2022-11-24T19:18:19.908Z,5.01
2022-11-24T19:23:22.371Z,5.04
2022-11-24T19:28:23.230Z,5.05
2022-11-24T19:33:24.208Z,5.05
2022-11-24T19:38:29.924Z,5.07
2022-11-24T19:43:32.017Z,5.11
2022-11-24T19:48:33.991Z,5.06
2022-11-24T19:53:36.541Z,5.14
2022-11-24T19:58:38.170Z,5.04
2022-11-24T20:03:40.059Z,5.08
2022-11-24T20:08:42.973Z,5.07
2022-11-24T20:13:45.497Z,5.15
2022-11-24T20:18:48.306Z,5.15
2022-11-24T20:23:55.892Z,5.15
2022-11-24T20:28:59.369Z,5.19
2022-11-24T20:34:01.126Z,5.17
2022-11-24T20:39:06.025Z,5.18
2022-11-24T20:44:10.483Z,5.17
2022-11-24T20:49:15.531Z,5.17
2022-11-24T20:54:19.391Z,5.13
2022-11-24T20:59:22.390Z,5.11
2022-11-24T21:04:25.516Z,5.10
2022-11-24T21:09:28.223Z,5.11
2022-11-24T21:14:32.513Z,5.11
2022-11-24T21:19:36.040Z,5.07
2022-11-24T21:24:38.189Z,5.15
2022-11-24T21:29:38.975Z,5.12
2022-11-24T21:34:39.824Z,5.15
2022-11-24T21:39:44.627Z,5.19
2022-11-24T21:44:45.555Z,5.23
2022-11-24T21:49:46.370Z,5.17
2022-11-24T21:54:48.509Z,5.23
2022-11-24T21:59:50.433Z,5.15
2022-11-24T22:04:51.225Z,5.17
2022-11-24T22:09:53.360Z,5.23
2022-11-24T22:14:54.116Z,5.29
2022-11-24T22:19:54.897Z,5.28
2022-11-24T22:24:57.027Z,5.32
2022-11-24T22:29:58.070Z,5.27
2022-11-24T22:34:58.832Z,5.26
2022-11-24T22:40:00.999Z,5.25
2022-11-24T22:45:01.776Z,5.30
2022-11-24T22:50:02.551Z,5.28
2022-11-24T22:55:05.101Z,5.30
2022-11-24T23:00:08.332Z,5.29
2022-11-24T23:05:09.878Z,5.25
2022-11-24T23:10:12.996Z,5.22
2022-11-24T23:15:13.767Z,5.19
2022-11-24T23:20:15.547Z,5.05
2022-11-24T23:25:17.885Z,4.99
2022-11-24T23:30:18.886Z,4.97
2022-11-24T23:35:19.936Z,4.72
2022-11-24T23:40:22.038Z,4.62
2022-11-24T23:45:23.144Z,4.62
2022-11-24T23:50:23.894Z,4.62
2022-11-24T23:55:26.085Z,4.59
